events-overview

Kinetic Half

 

Overall Men

Lake Anna State Park - Spotsylvania, VA 5/09/2009 08:00AM

** Results are for the private use of participants and are the Intellectual Property of Set Up Events. Unauthorized use of these results is prohibited.

Place Bib Co S Age NAME CITY/STATE DQ DQ Rank SWIM Rank T1 Rank BIKE Rank T2 Rank RUN PENALTY TIME DQ
1246 M33CHRISTOPHER MARTINLAWRENCEVILLE NJ 400:25:50500:01:38402:25:351100:00:53101:23:0000:04:0004:20:54 
2289 M26KYLE PAWLACZYKCHARLOTTESVILLE VA 700:26:372500:02:01202:22:11900:00:51701:31:5100:03:0004:26:29 
3314 M34JUSTIN RIDDLEKING GEORGE VA            04:31:28 
4151 M42JAMES HARVEYNORFOLK VA 5300:31:094500:02:181202:33:263500:01:07601:31:47 04:39:45 
570 M24FREDERICK COOKBLACKSBURG VA 800:26:381000:01:53702:30:58400:00:472001:37:4100:03:0004:40:57 
671 M33MICHAEL COOKRICHMOND VA 3000:29:503400:02:081802:35:132900:01:051101:34:13 04:42:26 
7278 M31OMAR NOURWASHINGTON DC DC 1100:27:343800:02:123002:39:06300:00:38901:33:44 04:43:12 
8453 M22SAMUEL DANNENBRINGYANKTON SD 4300:30:32700:01:49502:29:59200:00:33201:28:4700:12:0004:43:38 
9158 M43WES HAYESDUMFRIES VA 4800:30:58100:01:302302:36:37100:00:311801:36:59 04:46:33 
10355 M36DAVID STAKELBALTIMORE MD 6600:31:443300:02:082502:38:072400:01:021401:35:02 04:48:01 
11396 M20CHRIS WALKERSTAFFORD VA 8100:32:344700:02:181302:33:48500:00:472301:38:57 04:48:23 
1216 M42SCOTT BALDWINRESTON VA 7300:32:101500:01:551602:34:351400:00:542401:39:09 04:48:42 
13457 M24DURAN GREENEAPEX NC 3700:30:173000:02:076102:46:204200:01:14301:29:11 04:49:06 
14213 M45DANIEL LABARCASTERLING VA 2800:29:411800:01:583902:41:596100:01:251301:34:33 04:49:33 
15379 M34JASON TOOTELLHAMILTON VA 5200:31:0911700:03:043502:40:326800:01:291601:35:26 04:51:38 
16149 M41DAVID HARTSTUDLEY VA 7400:32:114800:02:195602:45:355600:01:21401:30:47 04:52:11 
17364 M33CURTIS STRAUBRICHMOND VA 4600:30:552300:02:004302:43:041600:00:551701:35:58 04:52:50 
18332 M35KYLE SCOTTASHBURN VA 1400:28:031300:01:541102:33:211200:00:535001:49:25 04:53:35 
19303 M42SAULIUS PUSKORIUSRESTON VA 5900:31:165900:02:282102:36:075400:01:213301:42:33 04:53:44 
20115 M36ANDREW FLETCHERDAVIDSON NC 900:27:142200:02:003102:39:082100:00:573601:44:31 04:53:47 
21460 M31WAYNE LEONARDIMT. EPHRAIM NJ 11400:34:384900:02:20602:30:403200:01:064201:46:12 04:54:53 
2288 M27TRAVIS DECKERTMIDLOTHIAN VA 200:23:405100:02:232602:38:1113300:02:015101:49:30 04:55:42 
23320 M40STEVE RUSSELLSEVERNA PARK MD 5600:31:1510700:02:595302:44:4814200:02:071501:35:04 04:56:12 
24239 M23MARC MALOTTBALTIMORE MD 10700:34:132600:02:022202:36:272500:01:033501:43:36 04:57:19 
25143 M33GARY GRIFFINBLOOMFIELD CT 10300:34:08800:01:513402:39:542000:00:572801:40:35 04:57:23 
26328 M30JASON SCHUERGERALEXANDRIA VA 5800:31:161600:01:564902:44:111900:00:572701:39:42 04:58:00 
27285 M22ALEX PAPEWASHINGTON DC 6300:31:382000:01:591402:33:531000:00:524501:46:5200:03:0004:58:11 
28155 M30KENNETH HAWKESBALTIMORE MD 11900:34:573100:02:074702:43:255300:01:211901:37:02 04:58:50 
29243 M40JACK MARMORSTEINHARRISONBURG VA 17100:37:268500:02:444802:43:497000:01:29801:33:26 04:58:53 
30402 M41TED WAUGHSPRINGFIELD VA 3300:29:599600:02:528902:51:112600:01:041001:34:07 04:59:11 
PlaceBibCoSAgeNAMECITY/STATE DQDQRankSWIMRankT1RankBIKERankT2RankRUNPENALTYTIMEDQ
31139 M35JASON GOYANKOVIENNA VA 6200:31:294400:02:173202:39:323100:01:054001:45:50 05:00:11 
32144CM38RYAN GROVEPITTSBURGH PA 2200:28:596000:02:294002:42:125800:01:233701:45:13 05:00:15 
3336 M26ANDY BLATECKYWASHINGTON DC 2000:28:42600:01:412902:39:05800:00:515801:51:29 05:01:46 
3499 M35ANDREW DUFFENORFOLK VA 4100:30:2919600:04:131002:32:3722200:03:265901:51:51 05:02:33 
3550 M20CHRISTOPHER BROWNSTAFFORD VA 3900:30:271100:01:5412802:57:563600:01:08501:31:43 05:03:06 
36110 M39ADRIAN FENTYWASHINGTON DC 7900:32:3214500:03:305802:45:5815600:02:172601:39:32 05:03:47 
37156 M30MICHAEL HAWMANROCKVILLE MD 8500:32:559700:02:537402:48:581300:00:542201:38:32 05:04:10 
38375 M30BRIAN TELLERPARKERSBURG WV 15500:37:058400:02:447202:48:218400:01:341201:34:29 05:04:11 
39248 M19SCOTT MAXFIELDOAK HILL VA 10200:34:0611000:03:006302:46:283800:01:092501:39:32 05:04:13 
40398 M23KEVIN WALTONWOODBRIDGE VA 500:25:542900:02:0711802:56:36700:00:502901:40:35 05:06:01 
41107 M37CRAIG ELLISHERNDON VA 10400:34:099300:02:491702:34:394900:01:196801:53:55 05:06:49 
4257 M22STEVE CARROLLFALLS CHURCH VA 11100:34:302100:01:592402:36:425000:01:206601:53:16 05:07:45 
4341 M26DORAN BOSSOARLINGTON VA 1800:28:305200:02:239702:52:536000:01:253401:43:21 05:08:30 
44276 M39TOM NEALESYOSSET NY 19400:38:011200:01:543602:40:525500:01:214301:46:27 05:08:32 
45117 M35NEAL FREEMERBRISTOW VA 1300:27:466200:02:302802:38:249800:01:418001:58:16 05:08:35 
46210 M52DAVE KOONTZCHARLOTTE NC 5700:31:153500:02:093302:39:547300:01:316701:53:49 05:08:37 
4731 M36JERRY BIANGSMYRNA DE 9000:33:157900:02:41802:32:121700:00:568602:00:10 05:09:13 
48219 M36ANTHONY LEEARLINGTON VA 16700:37:1811300:03:034102:42:403900:01:113801:45:17 05:09:27 
49137 M28JOE GORGOLNORFOLK VA 7800:32:3212200:03:098502:50:349000:01:373201:42:30 05:10:19 
5020 M42BRIAN BARTHOLOMEWCHARLOTTESVILLE VA 4900:31:028600:02:459802:53:0112700:01:573001:41:42 05:10:24 
5189 M28KEN DELRASOALEXANDRIA VA 1700:28:2610500:02:582002:35:584400:01:159702:02:29 05:11:05 
52185 M33ERIK JELLUMDAYTON VA 4500:30:553900:02:137302:48:3511200:01:484901:48:11 05:11:40 
536CM24JONATHAN ANDERSONFAIRFAX VA 4400:30:521400:01:541502:34:2115500:02:169902:02:34 05:11:55 
54250 M50JOHN MAZURARLINGTON VA 4700:30:5813000:03:178302:50:2910600:01:443901:45:37 05:12:02 
55309 M44ISIDORO REVERTEOAK HILL VA 3100:29:5315100:03:336502:46:4510000:01:425401:50:24 05:12:16 
56368 M33DAMON TAAFFEARLINGTON VA 3600:30:142700:02:0312402:57:245900:01:233101:41:47 05:12:49 
5717 M38DANIEL BALLINWILLIAMSBURG VA 2700:29:3611200:03:022702:38:1718800:02:468401:59:36 05:13:15 
58202 M37RANDALL KISERRESTON VA 5500:31:156900:02:364602:43:178300:01:337601:57:26 05:16:05 
5975 M33MATTHEW CROSSWASHINGTON DC 13700:36:185500:02:267902:49:529600:01:414401:46:39 05:16:54 
60196 M58TOM KEELEYCHESAPEAKE VA 18000:37:389800:02:547102:48:054000:01:114801:48:08 05:17:53 
6186CM39DAVID DEALORANGE VA 20500:38:557500:02:406602:47:078600:01:344601:47:48 05:18:01 
PlaceBibCoSAgeNAMECITY/STATE DQDQRankSWIMRankT1RankBIKERankT2RankRUNPENALTYTIMEDQ
6215 M33IRAWAN BALCETWASHINGTON DC 10800:34:252400:02:006202:46:261500:00:556901:54:34 05:18:18 
63111 M45JIM FINDLEYWILLIAMSBURG VA 19800:38:2513100:03:214402:43:0510200:01:436201:52:23 05:18:55 
6435 M51MICHAEL BLAIRPOWHATAN VA 9500:33:527600:02:406402:46:3920200:03:006501:53:15 05:19:25 
65275 M41JIM NEALECHARLOTTESVILLE VA 7100:32:051700:01:583802:41:325700:01:2310202:03:05 05:20:01 
6683 M40JEREMY DAVIDSONVIRGINIA BEACH VA 8800:33:0213200:03:216002:46:0412900:01:587201:56:12 05:20:36 
6711 M50JOEY BAIRDARLINGTON VA 21900:39:3623900:05:164502:43:0820600:03:085301:50:04 05:21:10 
68234 M47STEVE MABEUSMONTCLAIR VA 3500:30:015600:02:267002:48:014500:01:158802:00:45 05:22:26 
69408 M38MATT WHITFIELDPOTOMAC FALLS VA 9200:33:4818200:03:5712302:57:148200:01:334101:46:03 05:22:34 
7056 M28STEPHEN CARLSONARLINGTON VA 16200:37:108300:02:448702:50:513000:01:055501:51:11 05:22:59 
7165 M54ROB COLBURNASHBURN VA 6900:31:529000:02:489502:52:376300:01:257401:56:59 05:25:39 
72417 M61WILLIAM WRENARLINGTON VA 2600:29:346300:02:317602:49:3211500:01:509802:02:31 05:25:57 
73176 M39BRANDON HUTCHERSONGLEN ALLEN VA 1000:27:184000:02:145002:44:149100:01:3713402:10:41 05:26:03 
7419 M41CHARLES BARNESVIENNA VA 19300:38:0110200:02:578002:50:1013200:02:016401:53:01 05:26:09 
75244 M40CHRIS MARTENSWILLIAMSBURG VA 15600:37:054600:02:185202:44:434600:01:158902:00:49 05:26:09 
7623 M28FABRICE BEAULIEUFALLS CHURCH VA 7700:32:30300:01:3610802:54:564100:01:127301:56:18 05:26:31 
7785 M32BRYAN DEALMECHANICSVILLE VA 11000:34:287200:02:3912702:57:403300:01:075701:51:27 05:27:18 
78272 M40MATT MOWREYHANOVER PA 3200:29:5610000:02:566702:47:229400:01:3811102:05:30 05:27:20 
799 M32MATTHEW BABCOCKROANOKE VA 17000:37:245400:02:235902:46:0013900:02:058502:00:01 05:27:52 
80127 M24JAMES GAUGHANVIENNA VA 8700:33:0115600:03:356802:47:238100:01:3310502:03:47 05:29:17 
81363 M39JAMEY STOWELLWASHINGTON DC 2500:29:2513800:03:249602:52:389200:01:3710702:04:27 05:31:29 
82390 M27JORDAN VANCEARLINGTON VA 7200:32:076800:02:356902:47:477500:01:3212002:07:47 05:31:45 
83263 M50CALVIN MILAMLYNCHBURG, VA 10100:34:0310300:02:5711002:55:2411700:01:517701:57:33 05:31:47 
84346 M38JONATHAN SMITHARLINGTON VA 11200:34:3323700:05:1613902:59:2623000:03:375601:51:14 05:34:04 
85170 M41MATTHEW HOYWAYNESBORO VA 9700:33:557100:02:369902:53:043700:01:0810402:03:37 05:34:19 
86409 M42DAVID WILLIAMSALEXANDRIA VA 19500:38:0218900:04:038102:50:216700:01:288702:00:41 05:34:33 
87310 M54MAURICIO REZENDEPOTOMAC MD 5000:31:0411100:03:008602:50:5113100:02:0111902:07:46 05:34:40 
88316MCM42EDWARD ROSS-CLUNISRICHMOND VA 23100:40:5620200:04:193702:41:3014100:02:0611302:05:55 05:34:45 
89165 M39ALLEN HORNERFORT BELVOIR VA 14600:36:4119000:04:0317303:05:2510500:01:444701:48:05 05:35:57 
90242 M34DARRELL MARIONCHESTERFIELD VA 22800:40:3722100:04:455402:44:5710400:01:4310802:04:44 05:36:44 
91361 M54RICHARD STAUFFERRICHMOND VA 6400:31:3821700:04:3610702:54:5014500:02:1110602:04:00 05:37:15 
92226 M42MICHAEL LOMBARDOELKRIDGE MD 16800:37:2212600:03:1312602:57:377100:01:307801:58:09 05:37:49 
PlaceBibCoSAgeNAMECITY/STATE DQDQRankSWIMRankT1RankBIKERankT2RankRUNPENALTYTIMEDQ
93133 M55STEVEN GIORGISHERNDON VA 2100:28:588000:02:418202:50:268700:01:3515002:14:16 05:37:55 
94348 M43SCOTT SMITHSOUTH RIDING VA 5100:31:0912300:03:0918203:07:543400:01:077101:54:48 05:38:05 
958 M44MICHAEL BABASILVER SPRING MD 10900:34:2525800:06:0415303:01:3522000:03:226301:52:45 05:38:09 
9649 M47BLAKE BROWNRICHMOND VA 21000:39:0213400:03:225102:44:217400:01:3212702:09:59 05:38:13 
97336 M30DANNY SERPICOELLICOTT CITY MD 1500:28:185800:02:277802:49:527700:01:3215902:16:16 05:38:23 
98123CM24STEVEN GARFINKELARLINGTON VA 9800:33:571900:01:587502:49:257800:01:3213702:11:38 05:38:29 
9961MCM41BRIAN CLARKMARTINSBURG WV 13100:35:518900:02:464202:42:5721200:03:1114902:13:55 05:38:38 
100359 M39RAY STAPLETONPENN LAIRD VA 6700:31:4510900:03:0011502:56:0712600:01:5610002:03:0000:04:0005:39:45 
1015 M24JOSEPH AMATOWASHINGTON DC 13000:35:484300:02:1614002:59:296600:01:279002:01:00 05:39:59 
102356 M42RICHARD STALLINGSFAIRFAX VA 13200:35:525300:02:2310902:55:0911600:01:5111202:05:52 05:41:05 
10344 M22AARON BRADNERBLACKSBURG VA 27600:50:4914900:03:338802:50:564300:01:147001:54:40 05:41:09 
104351 M29DAVID SOLOMONWASHINGTON DC 13800:36:1918600:04:0118403:08:4414600:02:125201:49:59 05:41:13 
105192 M32JOSHUA KAHNEYINDIAN HEAD MD 8600:32:5710800:02:591902:35:272200:00:5820802:30:01 05:42:20 
106424 M44JOE ZURZOLOMEDFORD NJ 11700:34:4820900:04:2611702:56:2316500:02:2711002:05:29 05:43:30 
107238 M35JOHN MAHERSTAFFORD VA 13400:35:5725700:05:5711602:56:2024400:04:009202:01:31 05:43:44 
108394 M26JONATHAN WACHTELVIRGINIA BEACH VA 11800:34:4924700:05:3014102:59:4619500:02:529302:01:33 05:44:28 
10962 M46KEVIN CLINCHHAMPTON VA 9600:33:5413600:03:229102:51:2616700:02:2814702:13:26 05:44:34 
110135 M37DREW GOODRICHHERNDON VA 21300:39:0815000:03:3315003:01:2015900:02:248101:58:44 05:45:07 
11124 M37BRIAN BELFIELDWARSAW VA 22400:40:057000:02:368402:50:3411400:01:4813002:10:09 05:45:11 
112194 M41CHRIS KANESTERLING VA 12700:35:4323500:05:1211102:55:3718100:02:3811502:06:26 05:45:34 
113189 M47JOSEPH JONESWOODBRIDGE VA 8400:32:507300:02:3913602:59:178000:01:3212402:09:21 05:45:38 
114252 M45WAYNE MCALLISTERLEESBURG VA 7600:32:176600:02:3415803:02:346200:01:2511702:07:05 05:45:52 
115290 M37JOHN PERCHERKEBRISTOW VA 24600:42:0410600:02:5817903:06:1719400:02:526001:52:07 05:46:16 
116423 M38ROBERT ZUCHNEWPORT NEWS VA 17500:37:3321800:04:4023403:23:2120400:03:022101:37:45 05:46:20 
117372 M34DAN TAYLORVIRGINIA BEACH VA 3400:30:0120700:04:2514403:00:0216900:02:2812902:10:04 05:46:58 
118237 M37REZA MAHBODARLINGTON VA 19700:38:2121900:04:4115603:02:1822900:03:377901:58:10 05:47:05 
11942 M46BRYAN BOWLESRICHMOND VA 20700:38:5615900:03:3716003:02:4818300:02:438201:59:24 05:47:26 
12063 M24PAUL COCHRANCHERRYPOINT NC 15100:36:586500:02:3210502:54:292700:01:0414402:13:08 05:48:10 
121377 M26COLLIN THOMASWASHINGTON DC 14100:36:3022400:04:4710202:54:0924100:03:5212602:09:49 05:49:05 
12247 M44CHARLES BRODSKYWASHINGTON DC 22200:39:4616500:03:4311402:56:029300:01:3812102:08:03 05:49:10 
123264 M48GREG MILLERSUFFOLK VA 15400:37:027800:02:4113002:58:24600:00:4813502:10:42 05:49:34 
PlaceBibCoSAgeNAMECITY/STATE DQDQRankSWIMRankT1RankBIKERankT2RankRUNPENALTYTIMEDQ
124138 M43GREG GOUDEAUVIRGINIA BEACH VA 26400:44:5120100:04:1914603:00:3517700:02:347501:57:22 05:49:40 
125186 M35PETER JENSENVIENNA VA 13900:36:2219200:04:057702:49:3412500:01:5516802:18:22 05:50:16 
126287CM39BREVEN PARSONSALEXANDRIA VA 10600:34:1212500:03:1314703:00:522800:01:0413902:11:41 05:51:00 
12730 M48WILLIAM BEYERRESTON VA 7500:32:1211600:03:035502:45:249700:01:4121102:30:25 05:52:43 
128322 M43ED SABOFREDERICKSBURG VA 20000:38:3017000:03:4617803:06:087600:01:3210102:03:01 05:52:55 
12959 M31ALEX CASTILLOHERNDON VA 17900:37:384200:02:1613702:59:2021500:03:1513302:10:39 05:53:05 
130161 M49LUBIN HERNANDEZ PALOMINOSILVER SPRING MD 8900:33:069500:02:5114302:59:5415200:02:1515402:15:02 05:53:06 
131225 M31JONATHAN LOKBURKE VA 2300:29:05200:01:3214503:00:116500:01:2616202:17:1500:04:0005:53:27 
132374 M43STEVE TAYLORCHANTILLY VA 2400:29:0918400:03:5814202:59:5014900:02:1216902:18:25 05:53:33 
133387 M48DAVID TURVENEARLINGTON VA 17600:37:3314700:03:3212502:57:2810900:01:4714502:13:17 05:53:37 
134385 M40DAVID TUFTSWINCHESTER VA 14400:36:3915400:03:3416403:04:1410300:01:4312202:08:09 05:54:18 
135108 M54RICK ENGLISHGLEN ALLEN VA 25700:43:4317300:03:4913502:59:1219200:02:4910902:05:06 05:54:38 
136188 M21CHRISTOPHER JONESANNAPOLIS MD 6500:31:4215500:03:3413102:58:2513000:01:5817202:19:10 05:54:48 
13760 M43BYRON CHAPMANFREDERICKSBURG VA 6100:31:2721000:04:269402:52:0213400:02:0319302:25:12 05:55:09 
138233 M21TOMMY LYONSVIRGINIA BEACH VA 18900:37:575700:02:275702:45:478900:01:3620202:28:08 05:55:54 
13969 M34ROBERT CONKLINBALTIMORE MD 15800:37:0714600:03:3119703:13:1118400:02:438301:59:27 05:55:57 
140112 M42ROBERT FLANAGANCHAPEL HILL NC 21200:39:073700:02:1116103:03:226400:01:2612802:10:00 05:56:04 
141324 M22LUKE SCHAMELANNAPOLIS MD 14000:36:237700:02:4023703:24:121800:00:566101:52:22 05:56:32 
142265 M39WILLIAM MILLIGANWASHINGTON DC 15300:37:0114300:03:2919603:12:5812400:01:559402:02:02 05:57:23 
143397 M34PAUL WALKERRICHMOND VA 14200:36:325000:02:2210002:53:1514300:02:0918502:23:14 05:57:29 
144422 M26DARRELL ZLOTNICKWASHINGTON DC 6800:31:519100:02:489002:51:2219800:02:5719502:25:2200:04:0005:58:18 
145132 M37MATTHEW GINSBURGWASHINGTON DC 20300:38:4923400:05:1114903:01:1524500:04:0412302:09:13 05:58:31 
14634 M46ROBERT BIRMINGHAMCHEASAPEAKE VA 20900:38:5723300:05:109302:51:5018700:02:4417602:19:55 05:58:35 
147455 M38DUANE JERORECOMMERCE MI 23400:41:0714200:03:2710602:54:4016200:02:2616502:17:54 05:59:32 
148181 M33SIMON JACKSONWASHINGTON DC 9900:33:588100:02:4213302:58:5313500:02:0318102:22:00 05:59:35 
149159 M22BRANDON HENDRICKSONSTAFFORD VA 4200:30:318200:02:4219503:12:5412300:01:5514202:12:06 06:00:06 
150420 M31JAMES YODERNORFOLK VA 20600:38:5522300:04:4615203:01:2621400:03:1414102:11:51 06:00:10 
151215 M39MICHAEL LARROMIDLOTHIAN VA 22300:39:5718100:03:5615703:02:2117400:02:3114302:12:14 06:00:57 
15226 M49WILLIAM BENKOWOODBRIDGE VA 26100:44:2324800:05:3218703:09:295100:01:209102:01:25 06:02:08 
153335 M38ETHAN SELTZEROILVILLE VA 9400:33:528800:02:4618103:07:322300:00:5816302:17:37 06:02:43 
154418 M39JACK WRIGHTMEDFORD NJ 300:25:2816300:03:4115403:02:0120100:02:5920702:29:29 06:03:36 
PlaceBibCoSAgeNAMECITY/STATE DQDQRankSWIMRankT1RankBIKERankT2RankRUNPENALTYTIMEDQ
15592 M24MICHAEL DI MARCOWASHINGTON DC 15000:36:5619700:04:1514803:01:0727000:06:3815202:14:46 06:03:39 
15610 M56GENE BACHMANVA. BEACH VA 15700:37:0612400:03:1118003:06:3813700:02:0415502:15:15 06:04:13 
15794 M28ANDREW DOBBERFUHLCHAPEL HILL NC 12400:35:1611900:03:0611302:56:017200:01:3120302:28:24 06:04:16 
158113MCM43JOSEPH FLEMINGWAYNESBORO VA 26800:45:5721500:04:3410302:54:1924300:04:0015602:15:29 06:04:17 
15954 M41ALESSANDRO CAILLATWASHINGTON DC 17200:37:2825000:05:3721003:15:4824000:03:509602:02:10 06:04:53 
160362 M27JONATHAN STEWARTWASHINGTON DC 18300:37:4422000:04:4311902:56:3720700:03:0818702:23:54 06:06:04 
161109 M35MICHAEL ESTESWILLIAMSBURG VA 26600:45:0917700:03:5312002:56:4717900:02:3716402:17:41 06:06:04 
162338 M41CHIP SHEWBRIDGEPOTOMAC FALLS VA 21800:39:3626000:06:0617703:05:5219600:02:5413802:11:40 06:06:06 
163129 M39CHRISTOPHER GERGENWASHINGTON DC 11600:34:4718700:04:0219303:11:5217100:02:2914602:13:19 06:06:27 
164369 M39VERNON TALLEY JRNORFOLK VA 20800:38:5711800:03:0517103:05:1720800:03:1015802:16:07 06:06:34 
165120 M39ERIC GAIERWASHINGTON DC 16600:37:1717600:03:5316303:04:0826400:05:1216002:16:33 06:07:02 
166282 M54PETER ODUNNEELLICOTT CITY MD 9100:33:4118800:04:0220803:15:4219700:02:5611602:07:0000:04:0006:07:19 
16713 M43GREGORY BAKERGLEN ALLEN VA 10000:33:5813700:03:2315503:02:1518900:02:4619002:25:02 06:07:23 
168182 M39PAUL JACOBSONFAIRFAX STATION VA 18100:37:4122800:05:0417503:05:4923800:03:4915702:15:39 06:08:00 
169365 M44BOB STRONGHERNDON VA 26500:45:0819900:04:1618803:09:4024600:04:0611402:06:15 06:09:23 
170329 M43BRADLEY SCHULTZHERNDON VA 23600:41:1323800:05:1613402:58:5323100:03:3917802:20:37 06:09:35 
171231NMM35PETER LUBINSKASMOSELEY VA 15900:37:087400:02:3924103:25:535200:01:2110302:03:33 06:10:31 
17295 M33CHRIS DONABELLAVIRGINIA BEACH VA 13500:36:1010100:02:5618303:08:1723900:03:4917302:19:27 06:10:37 
173267 M33LUKE MONCKARLINGTON VA 17800:37:3611500:03:0316803:04:5617000:02:2818302:22:49 06:10:51 
174203 M41BRUCE KLINGERVIRGINIA BEACH VA 10500:34:1112900:03:169202:51:3611300:01:4822302:40:25 06:11:15 
1754 M49KEITH ALSTONCHESAPEAKE VA 25400:43:1019500:04:1018503:09:0712000:01:5314802:13:42 06:12:00 
17653 M49MARK BURNSIDERICHMOND VA 22500:40:2410400:02:5716603:04:4719900:02:5818002:21:02 06:12:06 
17727NMM29JEFF BERGGRENALEXANDRIA VA 12300:35:0718000:03:5521303:16:0314800:02:1213602:10:5500:04:0006:12:10 
178405 M34JOE WEINSTEINWASHINGTON DC 8200:32:386700:02:3424503:26:249900:01:4212502:09:34 06:12:50 
179106 M44CHRIS EDMONDSONCHANTILLY VA 6000:31:2622900:05:0520503:14:5223400:03:4316602:17:59 06:13:03 
180171 M47DAN HUFFMANFREDERICKSBURG VA 18800:37:5426800:06:4117203:05:2217500:02:3117902:20:55 06:13:22 
181178 M30ROBERT HYSONHUDSONVILLE MI 16400:37:1312100:03:0918603:09:108800:01:3618602:23:15 06:14:19 
182286MCM40JAY PARKERLYNCHBURG VA 2900:29:4319800:04:1610402:54:2515000:02:1423502:45:13 06:15:49 
1832 M35JUSTIN ABERNATHYWASHINGTON DC 12900:35:4725400:05:5211202:55:5223600:03:4721802:35:07 06:16:23 
1841 M35JASON ABERNATHYWASHINGTON DC 12200:35:0626700:06:3815903:02:3426300:05:0819702:26:59 06:16:23 
185153 M42KENTON HASSONGERMANTOWN MD 23000:40:5217400:03:5021703:16:5810700:01:4515102:14:21 06:17:44 
PlaceBibCoSAgeNAMECITY/STATE DQDQRankSWIMRankT1RankBIKERankT2RankRUNPENALTYTIMEDQ
186145 M23DAVID GUTHMANNANNAPOLIS MD 600:26:30900:01:5110102:53:414700:01:1625002:54:46 06:18:03 
187283 M41MICHAEL O'NEILSUFFOLK VA 19100:37:599200:02:4821103:15:5310800:01:4617502:19:41 06:18:05 
188190 M42ROBERT JONESLEESBURG VA 17700:37:3413500:03:2216503:04:3016400:02:2619902:27:2800:04:0006:19:19 
189323 M49WARD SAMPSONRESTON VA 24000:41:3519400:04:0717003:05:0223300:03:4219602:26:59 06:21:24 
190340 M36JOHNNY SHOEMAKERQUANTICO VA 26700:45:5317200:03:4621503:16:199500:01:3813202:10:3800:04:0006:22:13 
19118 M41JOHN BARBACHANOSTAFFORD VA 22600:40:286400:02:3219203:11:5016800:02:2819402:25:13 06:22:28 
192204 M39JAMES KNAACKARLINGTON VA 22700:40:339400:02:5012902:58:2116600:02:2722102:39:01 06:23:10 
193395 M39JEFF WAGNERBRISTOW VA 16300:37:1012000:03:0716703:04:5621100:03:1021702:34:49 06:23:11 
194350 M32BOBBY SODERHOLMMIDLOTHIAN VA 11500:34:4018500:04:0020103:13:3915800:02:2320502:29:14 06:23:55 
195288 M44MICHAEL PARSONSIJAMSVILLE MD 11300:34:3425100:05:4222903:21:5422700:03:3217102:19:05 06:24:45 
196412 M50BRETT WOHLERALEXANDRIA VA 28201:03:2824600:05:2915103:01:2425700:04:5913102:10:16 06:25:34 
197459 M44NICOLAS NOUVELSPRINGFIELD VA 14700:36:4315700:03:3523903:24:4811800:01:5317402:19:36 06:26:33 
198104 M39NEIL DYASONSUFFOLK VA 24400:41:5617800:03:5421603:16:2914700:02:1217002:18:3400:04:0006:27:03 
19955 M48SCOTT CAMPBELLRICHMOND VA 12800:35:4721300:04:3220303:14:3613600:02:0320902:30:10 06:27:07 
200227 M40BRYAN LONDONARLINGTON VA 16500:37:1514100:03:2724903:28:1912200:01:5416102:16:36 06:27:29 
201295 M33JOSHUA PITTSALEXANDRIA VA 17400:37:3114800:03:3325403:29:1520900:03:1015302:14:56 06:28:23 
20243 M57STEVE BRADLEYPURCELLVILLE VA 12100:35:032800:02:0418903:09:5414400:02:1022502:41:11 06:30:20 
203274 M43RICHARD NAGLEASHBURN VA 25100:42:4424000:05:1619803:13:1316300:02:2618402:22:5700:04:0006:30:34 
204370 M36ROMMEL TAMAYOVIRGINIA BEACH VA 23500:41:0924900:05:3623503:23:5123700:03:4716702:18:03 06:32:24 
205268NMM41PAUL MORETTIALEXANDRIA VA 13300:35:5627400:07:3022403:19:3926500:05:1418802:24:16 06:32:33 
20633 M40JOSEPH BILELLOMEDFORD NJ 20100:38:3125500:05:5620903:15:4826100:05:0820002:27:39 06:33:00 
207169 M40GREGG HOWELLSOUTH RIDING VA 23700:41:1524500:05:2626103:33:0721700:03:1714002:11:45 06:34:49 
20897 M36VIJAY DSOUZAWASHINGTON DC 22900:40:4116700:03:4321903:17:5621900:03:2119202:25:1100:04:0006:34:50 
209217 M35KENT LASSMANALEXANDRIA VA 1900:28:396100:02:3020603:15:1622800:03:3223402:45:10 06:35:06 
210146 M49GEOFF GWYNNEHARRISONBURG VA 9300:33:5024200:05:2022103:18:0220000:02:5821302:31:3300:04:0006:35:41 
211345 M43ALLEN SMITHWINCHESTER VA 23300:41:0426500:06:3319403:12:0518200:02:3920602:29:2700:04:0006:35:44 
212392 M47DETLEF VIETENLEXINGTON PARK MD 21400:39:1016000:03:3819103:10:1911000:01:4722402:40:57 06:35:48 
213201 M58ALAN KINSLERWESTMINSTER MD 12500:35:3319100:04:0520003:13:3625300:04:4622002:38:06 06:36:04 
214344 M53ROBERT SIEMERSMIDLITHIAN VA 15200:36:5920600:04:2413802:59:2621600:03:1624402:52:02 06:36:06 
215358 M51STEVEN STANTONCOLUMBIA MD 25200:43:0023200:05:0820403:14:5221000:03:1021002:30:14 06:36:22 
21640 M51ROBERT BOSLEYVIRGINIA BEACH VA 13600:36:1417100:03:4617603:05:5112800:01:5823902:49:18 06:37:04 
PlaceBibCoSAgeNAMECITY/STATE DQDQRankSWIMRankT1RankBIKERankT2RankRUNPENALTYTIMEDQ
217195 M40GARY KARTONARLINGTON VA 14300:36:3627100:07:1026903:42:3522100:03:2311802:07:29 06:37:10 
218173MCM47DAVID HUNTERHARRISONBURG VA 5400:31:139900:02:5524703:26:5711900:01:5321602:34:25 06:37:20 
219162 M51JOE HIGGINSSPRINGFIELD VA 24900:42:2128000:08:3526603:41:1921800:03:199502:02:09 06:37:41 
220378MCM41DAVID TOMBLINALEXANDRIA VA 16100:37:1016600:03:4317403:05:4825000:04:2823602:46:50 06:37:57 
221167 M23ANDY HOUCKANNAPOLIS MD 7000:31:5413300:03:2125203:28:4510100:01:4221502:32:29 06:38:10 
222279 M27JONATHAN OCONNORFORT BELVOIR VA 21500:39:1315800:03:3724803:28:1319300:02:5118902:24:53 06:38:45 
223199 M53JOHN KIMMONTCLAIR VA 23800:41:2217500:03:5023103:22:1623200:03:4220402:28:41 06:39:49 
224160 M39ROBERT HERBMEDFORD NJ 23900:41:3126900:06:4622703:20:4026900:06:1319102:25:05 06:40:13 
225327 M34TIM SCHNELLEALEXANDRIA VA 27200:47:1425200:05:4323303:23:1222400:03:2918202:22:04 06:41:40 
22614 M33SERGIO BALBONTINFALLS CHURCH VA 26200:44:2421600:04:3416203:03:3924800:04:1123302:45:08 06:41:54 
22751 M44FORREST BROWNESPRINGFIELD VA 23200:41:0116400:03:4122603:20:2220300:03:0021202:31:0400:04:0006:43:07 
228306 M34WRIGHT RAMSEYRICHMOND VA 18600:37:4618300:03:5824203:26:0124200:03:5421402:32:15 06:43:50 
229307 M38STEPHEN REGGIOLORTON VA 21700:39:2827600:07:3625803:31:4527100:08:3317702:20:33 06:47:54 
230458 M43DAVID GRAFROCKVILLE VA 19900:38:2820800:04:2621803:17:3822500:03:3123202:44:38 06:48:38 
231118 M26KENNETH FREIJERICHMOND VA 19200:38:0016200:03:4016903:05:026900:01:2925803:01:21 06:49:29 
232383 M52JAMES TUBBSLEXINGTON VA 20400:38:5322600:04:5722803:21:4617600:02:3422802:43:24 06:51:32 
233230 M30NICK LOZARQUANTICO VA 12600:35:3414000:03:2724403:26:2020500:03:0422702:43:12 06:51:34 
234399 M49MICHAEL WARWICKFAIRFAX STATION VA 8300:32:4623600:05:1225103:28:3724900:04:1722602:41:48 06:52:38 
235277MCM43BARRY NOBLESALEXANDRIA VA 24700:42:0925300:05:4724003:25:2918600:02:4421902:36:44 06:52:51 
236131 M39JOHN GILLGERMANTOWN MD 14800:36:5112700:03:1524303:26:0119100:02:4623102:44:18 06:53:09 
237128 M39JASON GEORGEFALLS CHURCH VA 12000:35:0119300:04:0719903:13:3517300:02:3125502:59:34 06:54:45 
238273 M41JOHN MURIEFISHERSVILLE VA 22000:39:4521200:04:2922503:20:1119000:02:4623802:49:18 06:56:27 
239317MCM51RODNEY RUBINSILVER SPRING MD 17300:37:3026400:06:2222003:17:5725600:04:5724002:50:15 06:56:59 
240326CM38ERIC SCHLUETERRICHMOND VA 25500:43:3111400:03:0322203:18:2121300:03:1124102:50:47 06:58:52 
241136 M45KAI GOODRICHARLINGTON VA 25900:44:1115200:03:3426803:42:0416100:02:2520102:28:05 07:00:17 
242280 M58BOB ODONNELLMARION VA 16900:37:2225600:05:5623203:22:3125200:04:4524302:51:41 07:02:12 
243342 M41GREG SHORTMIDLOTHIAN VA 18200:37:4222500:04:5422303:18:3514000:02:0525703:00:35 07:03:50 
24446 M57BILL BRISTOWBURKE VA 24500:42:0216100:03:3823803:24:2015700:02:2225102:54:56 07:07:17 
245141 M60JOHN GREGORYROANOKE VA 20200:38:3213900:03:2425903:31:5511100:01:4724702:54:00 07:09:36 
24637MCM41JAMES BLOOMERGAINESVILLE VA 26900:46:0026300:06:1925703:31:2718500:02:4322902:43:32 07:10:01 
247105MCM41JEFF EDGELLFAIRMONT WV 18500:37:4522200:04:4621403:16:0626800:05:4925903:01:3900:04:0007:10:03 
PlaceBibCoSAgeNAMECITY/STATE DQDQRankSWIMRankT1RankBIKERankT2RankRUNPENALTYTIMEDQ
248150 M50DOUGLAS HARTMANSPRINGFIELD VA 27500:50:3321400:04:3325303:29:0515100:02:1423002:44:16 07:10:39 
249461 M27NIELS KNUTSONWASHINGTON DC 18400:37:4424400:05:2624603:26:4925100:04:3125202:57:17 07:11:46 
25045 M50JEFF BRAUERGLEN ALLEN VA 26300:44:3426600:06:3723003:22:0226600:05:1624802:54:01 07:12:28 
251236 M38GREGORY MAGEEFALLS CHURCH VA 19600:38:1623000:05:0726503:39:2717800:02:3523702:47:56 07:13:19 
252410NMM26JAMES WILLIAMSMIDLOTHIAN VA 21100:39:0516800:03:4427704:03:527900:01:3219802:27:25 07:15:36 
253211NMM53TOM KRAHLINGFREDERICKSBURG VA 26000:44:1227500:07:3325003:28:3422600:03:3124902:54:34 07:18:23 
254393 M39FELIX VLADTOANO VA 27400:50:1421100:04:2725503:29:2515400:02:1624502:52:52 07:19:13 
255304 M34LUIS RAMIREZCHARLOTTE NC 21600:39:2026200:06:1323603:24:0226200:05:0826303:05:19 07:20:01 
25652 M46GAVIN BUCKLEYANNAPOLIS MD 25800:44:0626100:06:1325603:31:1825400:04:4725402:59:13 07:25:35 
257174 M40MATT HURTGENEVANSTON IL 14900:36:5227700:07:4826203:33:1927200:11:4724602:53:1500:04:0007:27:00 
258386 M35JASON TURNERCARY NC 27800:52:0317900:03:5426303:35:1125900:05:0724202:50:56 07:27:09 
2597 M34SCOTT ANDERSONRICHMOND VA 25300:43:0720300:04:1927103:43:1517200:02:3125603:00:07 07:33:18 
26025 M41JOHN BELLOMIDLOTHIAN VA 27100:46:2224100:05:1826703:41:5822300:03:2626203:03:28 07:40:29 
26181 M41JOSEPH DANEKANNAPOLIS MD 24300:41:5428100:14:2620703:15:2127300:20:4325302:59:1200:12:0007:43:34 
262456 M37JIM BOJACKLAURENCEBERG KY 28000:52:1227300:07:2426003:32:3318000:02:3826503:10:04 07:44:49 
263334 M40JEFFREY SEGALWOODBRIDGE VA 27700:51:4724300:05:2627604:03:2125800:05:0022202:40:15 07:45:48 
264299 M43TYLER POTTERLYNCHBURG VA 27300:48:4927200:07:1827003:42:4825500:04:4826003:02:55 07:46:35 
265308 M48MARK RENNINGERLYNCHBURG VA 27900:52:1127800:08:1827403:54:0223500:03:4526103:03:19 08:01:34 
266262 M36AUGUSTIN MERCADOGERMANTOWN MD 28100:55:3420000:04:1827504:01:0115300:02:1526603:15:50 08:18:56 
267354 M49JEFF STAHREVIRGINIA BEACH VA 27000:46:1723100:05:0727804:20:0824700:04:0726403:05:26 08:21:04 
268212CM35CHARLES KUEBLERHYATTSVILLE MD 25000:42:3927900:08:2927904:25:2126700:05:21  00:04:00  
269177 M33RYAN HYSLOPVIRGINIA BEACH VA 1600:28:233200:02:08302:24:434800:01:17     
270319MCM52ROY RUMSEYFAIRFAX VA 19000:37:5720500:04:2121203:15:568500:01:34     
27176 M22OLIVER CROSSALBEMARLE NC 25600:43:3516900:03:4527303:50:2612100:01:53     
272122 M36RODRIGO GARCIACENTREVILLE VA 24200:41:53400:01:3720203:13:5613800:02:04     
273134 M49MICHAEL GLOVERFALLS CHURCH VA 18700:37:5014400:03:3019003:10:1016000:02:25     
27490 M47STEPHEN DEMPSEYSILVER SPRING MD 14500:36:3927000:06:5426403:35:3126000:05:07     
275245 M27STEUART MARTENSBETHESDA MD 100:23:113600:02:09101:37:38       
276164 M42BARRY HOLMANWASHINGTON DC 1200:27:428700:02:45902:32:28       
277184MCM50KIP JAWISHFREDERICK MD 8000:32:334100:02:1612102:56:49       
278449UMM51GLENN STEPHENSWASHINGTON DC DC 3800:30:2620400:04:2012202:57:05       
PlaceBibCoSAgeNAMECITY/STATE DQDQRankSWIMRankT1RankBIKERankT2RankRUNPENALTYTIMEDQ
279445UMM56GARY GREENWOODFORK UNION VA 24100:41:5212800:03:1513202:58:46       
280444UMM58ALONZO CRITTENDENALEXANDRIA VA 24800:42:1622700:04:5927203:47:58       
28158 M56STEVEN CARTER-LOVEJOYRICHMOND VA 22100:39:4515300:03:34         
282103UMM39JUSTIN DURSTBURKE VA 16000:37:0925900:06:06         
283419 M45JEFFREY YINGLINGAPEX NC 4000:30:28           

** Results are for the private use of participants and are the Intellectual Property of Set Up Events. Unauthorized use of these results is prohibited.